Drachten Airfield

EHDR · Friesland, 荷兰

罗盘
风向 的 Drachten Airfield 7/25
风: 1 kt, 1 beaufort


1 kt
改变
0 1.000 2.000 3.000 4.000 5.000
OVC 1.700 ft
METAR EHLW 291655Z AUTO VRB01KT 9999 OVC017 07/07 Q1020 WHT NOSIG

METAR Drachten Airfield - EHDR

Drachten Airfield是,荷兰中的小机场。 该机场有一条跑道: 7/25. 该领域的国际民航组织标志是EHDR.

这份报告是针对2022年11月29日 17:55, 当地时间在Leeuwarden Air Base进行的。

机场观察

可变方向的风很小或没有风。

可见度为10 km 或者更多。

有乌云密布在1.700 ft的高度。 破损或更高的上限为1.700 ft。

温度和风寒是7 °C。 露点为7 °C,相对湿度为100%。 海平面上的气压为1020 hPa (QNH)。

白天

今天,太阳从08:23升起,在16:24降落。 这适用于Drachten Airfield,世界夏令时可能有所不同。 当地时间与世界标准时间之间的时差为+1 小时。 当前,没有夏令时有效。

公司介绍

我们没有关于这个机场的公司信息。

体会

到Vliegles.nl去找飞行课程,跳伞和其他飞行体验。 浏览页面,了解Drachten Airfield附近所有可用的活动。 你也可以使用搜索功能来寻找你所在地附近的特定飞行课程、跳伞或其他飞行体验。

跑道

Id 标题 侧风 逆风 侧风 %
7/25 074°-254° 96 %

逆风成分最大的方向会被突出显示,并用于横风计算。 这并不一定意味着这个方向在使用。

乌云

1.700 ft OVC 乌云密布

温度 & 天气

温度 7 °C
露点 7 °C
相对湿度 100%
Kp-index 5 (0-9)

白天

日出
08:25 (14:08)
中午
12:25
日落
16:25

小工具

你想在你的网站上有一个关于Drachten Airfield的当前航空天气(METAR)的小部件吗?

显示HTML代码

我们和第三方通过cookies跟踪您在我们网站上的互联网行为。如果你继续,我们认为你同意我们的饼干政策